createdAt,value
2022-12-04T00:01:18.406Z,1.10
2022-12-04T00:03:45.304Z,1.10
2022-12-04T00:06:18.876Z,1.10
2022-12-04T00:08:46.963Z,1.10
2022-12-04T00:11:17.064Z,1.10
2022-12-04T00:13:43.918Z,1.00
2022-12-04T00:16:17.605Z,1.10
2022-12-04T00:18:44.815Z,1.10
2022-12-04T00:21:13.637Z,1.10
2022-12-04T00:23:40.591Z,1.10
2022-12-04T00:26:10.410Z,1.10
2022-12-04T00:28:37.985Z,1.10
2022-12-04T00:31:06.023Z,1.00
2022-12-04T00:33:32.928Z,1.00
2022-12-04T00:36:01.031Z,1.00
2022-12-04T00:38:28.342Z,1.00
2022-12-04T00:40:55.321Z,1.10
2022-12-04T00:43:22.615Z,1.10
2022-12-04T00:45:50.350Z,1.00
2022-12-04T00:48:17.205Z,1.00
2022-12-04T00:50:44.278Z,1.00
2022-12-04T00:53:11.572Z,1.00
2022-12-04T00:55:39.476Z,1.00
2022-12-04T00:58:07.719Z,1.00
2022-12-04T01:00:39.439Z,1.10
2022-12-04T01:03:07.851Z,1.10
2022-12-04T01:05:42.710Z,1.10
2022-12-04T01:08:10.740Z,1.10
2022-12-04T01:10:41.975Z,1.10
2022-12-04T01:13:09.159Z,1.00
2022-12-04T01:15:40.395Z,1.10
2022-12-04T01:18:07.533Z,1.10
2022-12-04T01:20:34.349Z,1.00
2022-12-04T01:23:01.081Z,1.00
2022-12-04T01:25:27.855Z,1.00
2022-12-04T01:27:54.586Z,1.00
2022-12-04T01:30:21.357Z,1.10
2022-12-04T01:32:48.378Z,1.10
2022-12-04T01:35:15.197Z,1.10
2022-12-04T01:37:41.919Z,1.00
2022-12-04T01:40:13.935Z,1.00
2022-12-04T01:42:40.698Z,1.00
2022-12-04T01:45:43.336Z,1.00
2022-12-04T01:48:25.909Z,1.00
2022-12-04T01:50:58.188Z,1.00
2022-12-04T01:53:25.454Z,1.00
2022-12-04T01:55:52.487Z,1.00
2022-12-04T01:58:24.699Z,0.90
2022-12-04T02:00:58.375Z,1.00
2022-12-04T02:03:25.548Z,0.90
2022-12-04T02:05:52.330Z,0.90
2022-12-04T02:08:19.315Z,0.90
2022-12-04T02:11:04.845Z,0.90
2022-12-04T02:13:39.843Z,0.90
2022-12-04T02:16:12.231Z,0.90
2022-12-04T02:18:46.368Z,0.90
2022-12-04T02:21:33.460Z,0.90
2022-12-04T02:24:15.279Z,0.80
2022-12-04T02:26:44.989Z,0.80
2022-12-04T02:29:36.479Z,0.80
2022-12-04T02:32:22.964Z,0.80
2022-12-04T02:34:54.815Z,0.80
2022-12-04T02:37:47.179Z,0.80
2022-12-04T02:40:23.273Z,0.70
2022-12-04T02:43:13.903Z,0.80
2022-12-04T02:45:51.517Z,0.70
2022-12-04T02:48:20.654Z,0.70
2022-12-04T02:50:51.796Z,0.70
2022-12-04T02:53:24.542Z,0.70
2022-12-04T02:55:57.144Z,0.60
2022-12-04T02:58:34.466Z,0.60
2022-12-04T03:01:02.950Z,0.60
2022-12-04T03:03:32.584Z,0.50
2022-12-04T03:06:10.755Z,0.50
2022-12-04T03:08:42.485Z,0.50
2022-12-04T03:11:09.352Z,0.50
2022-12-04T03:13:43.577Z,0.50
2022-12-04T03:16:23.009Z,0.50
2022-12-04T03:18:56.867Z,0.50
2022-12-04T03:21:28.879Z,0.50
2022-12-04T03:24:19.152Z,0.50
2022-12-04T03:26:50.295Z,0.60
2022-12-04T03:29:30.859Z,0.60
2022-12-04T03:32:07.770Z,0.70
2022-12-04T03:34:44.892Z,0.60
2022-12-04T03:37:16.778Z,0.70
2022-12-04T03:39:53.317Z,0.60
2022-12-04T03:42:31.748Z,0.70
2022-12-04T03:45:03.204Z,0.70
2022-12-04T03:47:46.576Z,0.70
2022-12-04T03:50:27.933Z,0.70
2022-12-04T03:53:12.548Z,0.60
2022-12-04T03:55:47.493Z,0.70
2022-12-04T03:58:20.107Z,0.70
2022-12-04T04:00:51.044Z,0.70
2022-12-04T04:03:33.977Z,0.70
2022-12-04T04:06:07.830Z,0.70
2022-12-04T04:08:38.967Z,0.80
2022-12-04T04:11:12.302Z,0.70
2022-12-04T04:14:11.612Z,0.70
2022-12-04T04:17:01.666Z,0.70
2022-12-04T04:19:49.803Z,0.70
2022-12-04T04:22:38.248Z,0.70
2022-12-04T04:25:13.175Z,0.80
2022-12-04T04:27:39.941Z,0.80
2022-12-04T04:30:07.751Z,0.80
2022-12-04T04:32:58.135Z,0.80
2022-12-04T04:35:55.230Z,0.80
2022-12-04T04:38:40.156Z,0.80
2022-12-04T04:41:16.410Z,0.80
2022-12-04T04:43:57.755Z,0.80
2022-12-04T04:46:33.209Z,0.80
2022-12-04T04:49:02.785Z,0.90
2022-12-04T04:51:31.017Z,0.90
2022-12-04T04:54:00.270Z,0.90
2022-12-04T04:56:27.231Z,0.90
2022-12-04T04:58:53.993Z,0.90
2022-12-04T05:01:24.315Z,0.90
2022-12-04T05:03:51.138Z,0.90
2022-12-04T05:06:17.947Z,0.90
2022-12-04T05:08:44.817Z,0.90
2022-12-04T05:11:13.796Z,0.90
2022-12-04T05:13:41.456Z,0.90
2022-12-04T05:16:13.001Z,1.00
2022-12-04T05:18:40.073Z,1.00
2022-12-04T05:21:08.490Z,1.00
2022-12-04T05:23:35.320Z,0.90
2022-12-04T05:26:04.248Z,1.00
2022-12-04T05:28:31.598Z,1.00
2022-12-04T05:31:02.152Z,1.00
2022-12-04T05:33:30.218Z,1.00
2022-12-04T05:36:05.961Z,1.00
2022-12-04T05:38:33.207Z,1.00
2022-12-04T05:41:01.584Z,1.00
2022-12-04T05:43:29.039Z,1.00
2022-12-04T05:45:59.980Z,1.00
2022-12-04T05:48:26.740Z,1.00
2022-12-04T05:50:53.476Z,1.10
2022-12-04T05:53:20.221Z,1.10
2022-12-04T05:55:58.289Z,1.10
2022-12-04T05:58:25.450Z,1.10
2022-12-04T06:00:52.184Z,1.10
2022-12-04T06:03:19.012Z,1.10
2022-12-04T06:05:46.053Z,1.10
2022-12-04T06:08:12.954Z,1.10
2022-12-04T06:10:39.880Z,1.10
2022-12-04T06:13:08.359Z,1.10
2022-12-04T06:15:39.672Z,1.10
2022-12-04T06:18:06.499Z,1.10
2022-12-04T06:20:33.900Z,1.20
2022-12-04T06:23:00.743Z,1.10
2022-12-04T06:25:27.595Z,1.10
2022-12-04T06:27:54.505Z,1.20
2022-12-04T06:30:21.323Z,1.20
2022-12-04T06:32:48.084Z,1.20
2022-12-04T06:35:14.918Z,1.10
2022-12-04T06:37:41.685Z,1.10
2022-12-04T06:40:09.272Z,1.10
2022-12-04T06:42:35.964Z,1.10
2022-12-04T06:45:03.057Z,1.10
2022-12-04T06:47:29.814Z,1.10
2022-12-04T06:49:56.918Z,1.20
2022-12-04T06:52:23.839Z,1.10
2022-12-04T06:54:50.655Z,1.20
2022-12-04T06:57:17.401Z,1.10
2022-12-04T06:59:44.131Z,1.10
2022-12-04T07:02:11.175Z,1.20
2022-12-04T07:04:37.975Z,1.20
2022-12-04T07:07:04.718Z,1.20
2022-12-04T07:09:31.481Z,1.20
2022-12-04T07:11:58.246Z,1.20
2022-12-04T07:14:25.009Z,1.20
2022-12-04T07:16:51.987Z,1.20
2022-12-04T07:19:18.820Z,1.20
2022-12-04T07:21:45.690Z,1.20
2022-12-04T07:24:17.052Z,1.20
2022-12-04T07:26:44.326Z,1.20
2022-12-04T07:29:11.238Z,1.30
2022-12-04T07:31:38.372Z,1.30
2022-12-04T07:34:05.267Z,1.30
2022-12-04T07:36:32.031Z,1.30
2022-12-04T07:38:58.958Z,1.30
2022-12-04T07:41:25.873Z,1.30
2022-12-04T07:43:54.015Z,1.30
2022-12-04T07:46:24.406Z,1.30
2022-12-04T07:48:51.301Z,1.30
2022-12-04T07:51:21.002Z,1.30
2022-12-04T07:53:48.922Z,1.30
2022-12-04T07:56:16.417Z,1.30
2022-12-04T07:58:43.249Z,1.40
2022-12-04T08:01:15.697Z,1.40
2022-12-04T08:03:47.950Z,1.40
2022-12-04T08:06:17.841Z,1.40
2022-12-04T08:08:44.814Z,1.40
2022-12-04T08:11:14.452Z,1.40
2022-12-04T08:13:41.229Z,1.40
2022-12-04T08:16:09.946Z,1.40
2022-12-04T08:18:36.924Z,1.40
2022-12-04T08:21:12.029Z,1.50
2022-12-04T08:23:40.511Z,1.40
2022-12-04T08:26:07.797Z,1.50
2022-12-04T08:28:35.559Z,1.40
2022-12-04T08:31:23.897Z,1.50
2022-12-04T08:33:52.219Z,1.50
2022-12-04T08:36:20.947Z,1.50
2022-12-04T08:38:48.746Z,1.60
2022-12-04T08:41:18.251Z,1.60
2022-12-04T08:43:45.204Z,1.50
2022-12-04T08:46:15.018Z,1.60
2022-12-04T08:48:42.485Z,1.60
2022-12-04T08:51:18.143Z,1.60
2022-12-04T08:53:45.176Z,1.60
2022-12-04T08:56:12.660Z,1.60
2022-12-04T08:58:39.537Z,1.60
2022-12-04T09:01:08.599Z,1.70
2022-12-04T09:03:35.520Z,1.60
2022-12-04T09:06:04.487Z,1.60
2022-12-04T09:08:32.568Z,1.70
2022-12-04T09:11:19.681Z,1.70
2022-12-04T09:13:46.526Z,1.70
2022-12-04T09:16:16.272Z,1.70
2022-12-04T09:18:43.732Z,1.70
2022-12-04T09:21:13.156Z,1.70
2022-12-04T09:23:40.878Z,1.70
2022-12-04T09:26:21.749Z,1.80
2022-12-04T09:28:49.667Z,1.80
2022-12-04T09:31:17.596Z,1.80
2022-12-04T09:33:44.931Z,1.80
2022-12-04T09:36:18.611Z,1.80
2022-12-04T09:38:47.649Z,1.90
2022-12-04T09:41:37.849Z,1.90
2022-12-04T09:44:20.360Z,1.90
2022-12-04T09:46:52.902Z,1.90
2022-12-04T09:49:34.937Z,1.90
2022-12-04T09:52:06.752Z,1.90
2022-12-04T09:54:40.521Z,1.90
2022-12-04T09:57:25.294Z,2.00
2022-12-04T09:59:53.190Z,2.00
2022-12-04T10:02:38.009Z,2.00
2022-12-04T10:05:07.659Z,2.00
2022-12-04T10:07:55.527Z,2.00
2022-12-04T10:10:38.931Z,2.00
2022-12-04T10:13:21.266Z,2.10
2022-12-04T10:15:48.057Z,2.10
2022-12-04T10:18:33.469Z,2.10
2022-12-04T10:21:12.676Z,2.10
2022-12-04T10:24:14.202Z,2.10
2022-12-04T10:26:45.321Z,2.10
2022-12-04T10:29:27.400Z,2.10
2022-12-04T10:31:56.667Z,2.10
2022-12-04T10:34:27.459Z,2.10
2022-12-04T10:37:00.615Z,2.10
2022-12-04T10:39:37.014Z,2.10
2022-12-04T10:42:15.019Z,2.10
2022-12-04T10:44:42.341Z,2.20
2022-12-04T10:47:12.119Z,2.20
2022-12-04T10:49:39.334Z,2.20
2022-12-04T10:52:07.050Z,2.30
2022-12-04T10:54:55.071Z,2.30
2022-12-04T10:57:21.906Z,2.30
2022-12-04T10:59:54.745Z,2.30
2022-12-04T11:02:29.093Z,2.30
2022-12-04T11:04:59.420Z,2.40
2022-12-04T11:07:29.908Z,2.40
2022-12-04T11:10:03.072Z,2.40
2022-12-04T11:12:30.681Z,2.40
2022-12-04T11:15:14.459Z,2.30
2022-12-04T11:17:41.548Z,2.30
2022-12-04T11:20:18.755Z,2.40
2022-12-04T11:22:54.944Z,2.40
2022-12-04T11:25:23.834Z,2.50
2022-12-04T11:28:00.973Z,2.50
2022-12-04T11:30:38.481Z,2.50
2022-12-04T11:33:15.166Z,2.50
2022-12-04T11:35:42.486Z,2.50
2022-12-04T11:38:18.761Z,2.50
2022-12-04T11:40:52.329Z,2.50
2022-12-04T11:43:20.462Z,2.40
2022-12-04T11:46:01.952Z,2.50
2022-12-04T11:48:41.641Z,2.50
2022-12-04T11:51:40.935Z,2.50
2022-12-04T11:54:22.083Z,2.50
2022-12-04T11:57:26.745Z,2.60
2022-12-04T12:00:03.389Z,2.60
2022-12-04T12:02:50.741Z,2.60
2022-12-04T12:05:54.067Z,2.60
2022-12-04T12:08:48.646Z,2.60
2022-12-04T12:11:35.711Z,2.60
2022-12-04T12:14:34.792Z,2.60
2022-12-04T12:17:33.355Z,2.60
2022-12-04T12:20:18.791Z,2.60
2022-12-04T12:23:07.042Z,2.60
2022-12-04T12:26:00.006Z,2.60
2022-12-04T12:28:53.250Z,2.60
2022-12-04T12:32:01.462Z,2.60
2022-12-04T12:34:41.885Z,2.60
2022-12-04T12:37:19.509Z,2.60
2022-12-04T12:40:14.281Z,2.60
2022-12-04T12:42:58.023Z,2.60
2022-12-04T12:45:34.879Z,2.60
2022-12-04T12:48:14.674Z,2.60
2022-12-04T12:50:58.166Z,2.70
2022-12-04T12:53:40.275Z,2.70
2022-12-04T12:56:13.079Z,2.70
2022-12-04T12:58:48.660Z,2.70
2022-12-04T13:01:22.499Z,2.70
2022-12-04T13:04:03.528Z,2.70
2022-12-04T13:06:39.267Z,2.70
2022-12-04T13:09:25.629Z,2.60
2022-12-04T13:11:58.375Z,2.60
2022-12-04T13:14:25.242Z,2.60
2022-12-04T13:16:55.831Z,2.70
2022-12-04T13:19:24.717Z,2.70
2022-12-04T13:21:57.956Z,2.70
2022-12-04T13:24:58.595Z,2.70
2022-12-04T13:27:42.704Z,2.70
2022-12-04T13:30:23.998Z,2.80
2022-12-04T13:33:18.407Z,2.80
2022-12-04T13:36:08.916Z,2.80
2022-12-04T13:38:58.122Z,2.80
2022-12-04T13:41:27.172Z,2.80
2022-12-04T13:43:55.471Z,2.80
2022-12-04T13:46:31.172Z,2.80
2022-12-04T13:49:30.394Z,2.80
2022-12-04T13:51:58.780Z,2.90
2022-12-04T13:54:35.798Z,2.90
2022-12-04T13:57:14.515Z,2.90
2022-12-04T13:59:42.251Z,2.80
2022-12-04T14:02:32.098Z,2.80
2022-12-04T14:05:06.455Z,2.80
2022-12-04T14:07:40.160Z,2.80
2022-12-04T14:10:16.084Z,2.90
2022-12-04T14:12:52.449Z,2.80
2022-12-04T14:15:26.670Z,2.80
2022-12-04T14:18:00.145Z,2.80
2022-12-04T14:20:33.193Z,2.80
2022-12-04T14:23:22.481Z,2.80
2022-12-04T14:25:51.156Z,2.80
2022-12-04T14:28:41.942Z,2.80
2022-12-04T14:31:32.237Z,2.80
2022-12-04T14:34:14.195Z,2.80
2022-12-04T14:36:44.316Z,2.80
2022-12-04T14:39:13.838Z,2.80
2022-12-04T14:41:40.949Z,2.80
2022-12-04T14:44:18.452Z,2.80
2022-12-04T14:46:51.028Z,2.80
2022-12-04T14:49:55.389Z,2.80
2022-12-04T14:52:32.738Z,2.70
2022-12-04T14:55:08.725Z,2.70
2022-12-04T14:57:58.955Z,2.80
2022-12-04T15:00:26.077Z,2.80
2022-12-04T15:02:56.707Z,2.80
2022-12-04T15:05:30.196Z,2.70
2022-12-04T15:08:02.348Z,2.70
2022-12-04T15:10:50.243Z,2.70
2022-12-04T15:13:35.337Z,2.70
2022-12-04T15:16:15.289Z,2.70
2022-12-04T15:18:52.520Z,2.70
2022-12-04T15:21:19.449Z,2.70
2022-12-04T15:23:46.238Z,2.70
2022-12-04T15:26:20.456Z,2.70
2022-12-04T15:28:53.995Z,2.70
2022-12-04T15:31:24.993Z,2.70
2022-12-04T15:33:56.603Z,2.70
2022-12-04T15:36:48.208Z,2.70
2022-12-04T15:39:26.870Z,2.80
2022-12-04T15:42:16.628Z,2.80
2022-12-04T15:45:10.362Z,2.80
2022-12-04T15:47:58.590Z,2.70
2022-12-04T15:50:27.421Z,2.70
2022-12-04T15:53:05.292Z,2.70
2022-12-04T15:55:36.323Z,2.70
2022-12-04T15:58:07.573Z,2.70
2022-12-04T16:00:39.380Z,2.70
2022-12-04T16:03:39.449Z,2.70
2022-12-04T16:06:21.339Z,2.80
2022-12-04T16:08:56.936Z,2.80
2022-12-04T16:11:37.878Z,2.80
2022-12-04T16:14:15.025Z,2.80
2022-12-04T16:16:48.242Z,2.80
2022-12-04T16:19:31.744Z,2.80
2022-12-04T16:21:59.462Z,2.80
2022-12-04T16:24:26.508Z,2.80
2022-12-04T16:26:55.310Z,2.80
2022-12-04T16:29:23.616Z,2.80
2022-12-04T16:31:51.197Z,2.80
2022-12-04T16:34:18.454Z,2.80
2022-12-04T16:36:45.357Z,2.80
2022-12-04T16:39:12.139Z,2.80
2022-12-04T16:41:39.898Z,2.70
2022-12-04T16:44:13.302Z,2.70
2022-12-04T16:46:40.261Z,2.70
2022-12-04T16:49:08.111Z,2.70
2022-12-04T16:51:37.350Z,2.70
2022-12-04T16:54:04.158Z,2.70
2022-12-04T16:56:30.912Z,2.70
2022-12-04T16:58:57.669Z,2.70
2022-12-04T17:01:28.485Z,2.70
2022-12-04T17:03:55.324Z,2.70
2022-12-04T17:06:22.260Z,2.70
2022-12-04T17:08:49.090Z,2.70
2022-12-04T17:11:17.629Z,2.70
2022-12-04T17:13:44.826Z,2.70
2022-12-04T17:16:14.976Z,2.60
2022-12-04T17:18:42.892Z,2.70
2022-12-04T17:21:11.546Z,2.60
2022-12-04T17:23:39.119Z,2.70
2022-12-04T17:26:08.344Z,2.60
2022-12-04T17:28:36.338Z,2.60
2022-12-04T17:31:06.005Z,2.60
2022-12-04T17:33:33.271Z,2.60
2022-12-04T17:36:03.405Z,2.60
2022-12-04T17:38:30.160Z,2.60
2022-12-04T17:41:04.246Z,2.60
2022-12-04T17:43:32.005Z,2.60
2022-12-04T17:45:59.157Z,2.60
2022-12-04T17:48:27.499Z,2.50
2022-12-04T17:51:09.130Z,2.50
2022-12-04T17:53:36.401Z,2.50
2022-12-04T17:56:08.741Z,2.50
2022-12-04T17:58:36.516Z,2.50
2022-12-04T18:01:08.797Z,2.50
2022-12-04T18:03:36.663Z,2.50
2022-12-04T18:06:23.531Z,2.50
2022-12-04T18:08:51.436Z,2.50
2022-12-04T18:11:20.648Z,2.50
2022-12-04T18:13:49.036Z,2.50
2022-12-04T18:16:16.039Z,2.40
2022-12-04T18:18:46.509Z,2.50
2022-12-04T18:21:14.303Z,2.50
2022-12-04T18:23:45.671Z,2.50
2022-12-04T18:26:15.607Z,2.40
2022-12-04T18:28:43.463Z,2.40
2022-12-04T18:31:10.972Z,2.40
2022-12-04T18:33:39.680Z,2.40
2022-12-04T18:36:09.262Z,2.40
2022-12-04T18:38:36.153Z,2.40
2022-12-04T18:41:07.699Z,2.30
2022-12-04T18:43:42.460Z,2.30
2022-12-04T18:46:11.656Z,2.30
2022-12-04T18:48:40.897Z,2.20
2022-12-04T18:51:26.831Z,2.20
2022-12-04T18:53:57.223Z,2.20
2022-12-04T18:56:24.751Z,2.20
2022-12-04T18:58:56.386Z,2.20
2022-12-04T19:01:23.236Z,2.20
2022-12-04T19:03:50.088Z,2.20
2022-12-04T19:06:16.934Z,2.10
2022-12-04T19:08:43.856Z,2.10
2022-12-04T19:11:13.426Z,2.10
2022-12-04T19:13:40.594Z,2.10
2022-12-04T19:16:15.485Z,2.10
2022-12-04T19:18:45.000Z,2.10
2022-12-04T19:21:12.623Z,2.10
2022-12-04T19:23:39.507Z,2.10
2022-12-04T19:26:06.659Z,2.10
2022-12-04T19:28:33.791Z,2.10
2022-12-04T19:31:00.654Z,2.10
2022-12-04T19:33:28.105Z,2.10
2022-12-04T19:35:59.314Z,2.10
2022-12-04T19:38:26.435Z,2.10
2022-12-04T19:41:10.063Z,2.10
2022-12-04T19:43:48.234Z,2.10
2022-12-04T19:46:17.303Z,2.10
2022-12-04T19:48:47.023Z,2.10
2022-12-04T19:51:17.673Z,2.10
2022-12-04T19:53:44.756Z,2.10
2022-12-04T19:56:17.209Z,2.10
2022-12-04T19:58:44.451Z,2.10
2022-12-04T20:01:19.441Z,2.10
2022-12-04T20:03:46.896Z,2.10
2022-12-04T20:06:16.337Z,2.10
2022-12-04T20:08:43.748Z,2.10
2022-12-04T20:11:19.200Z,2.10
2022-12-04T20:13:47.499Z,2.10
2022-12-04T20:16:17.490Z,2.00
2022-12-04T20:18:45.207Z,2.10
2022-12-04T20:21:13.164Z,2.10
2022-12-04T20:23:51.002Z,2.10
2022-12-04T20:26:27.485Z,2.10
2022-12-04T20:28:56.647Z,2.10
2022-12-04T20:31:24.863Z,2.10
2022-12-04T20:33:53.607Z,2.10
2022-12-04T20:36:22.252Z,2.10
2022-12-04T20:38:52.335Z,2.10
2022-12-04T20:41:20.184Z,2.10
2022-12-04T20:43:47.446Z,2.10
2022-12-04T20:46:15.635Z,2.10
2022-12-04T20:48:48.756Z,2.10
2022-12-04T20:51:18.463Z,2.10
2022-12-04T20:53:47.071Z,2.10
2022-12-04T20:56:14.409Z,2.10
2022-12-04T20:58:41.380Z,2.10
2022-12-04T21:01:10.382Z,2.20
2022-12-04T21:03:37.243Z,2.10
2022-12-04T21:06:05.076Z,2.10
2022-12-04T21:08:51.328Z,2.10
2022-12-04T21:11:18.078Z,2.10
2022-12-04T21:14:03.423Z,2.10
2022-12-04T21:16:30.258Z,2.10
2022-12-04T21:18:57.139Z,2.10
2022-12-04T21:21:26.608Z,2.10
2022-12-04T21:23:53.545Z,2.10
2022-12-04T21:26:20.619Z,2.10
2022-12-04T21:28:47.411Z,2.10
2022-12-04T21:31:14.581Z,2.10
2022-12-04T21:33:41.388Z,2.10
2022-12-04T21:36:09.798Z,2.10
2022-12-04T21:38:38.308Z,2.10
2022-12-04T21:41:07.482Z,2.10
2022-12-04T21:43:36.316Z,2.20
2022-12-04T21:46:09.411Z,2.10
2022-12-04T21:48:36.977Z,2.10
2022-12-04T21:51:21.194Z,2.10
2022-12-04T21:53:54.714Z,2.10
2022-12-04T21:56:22.451Z,2.10
2022-12-04T21:58:49.657Z,2.10
2022-12-04T22:01:18.085Z,2.10
2022-12-04T22:03:44.942Z,2.10
2022-12-04T22:06:12.222Z,2.10
2022-12-04T22:08:41.086Z,2.20
2022-12-04T22:11:09.889Z,2.20
2022-12-04T22:13:37.185Z,2.20
2022-12-04T22:16:06.244Z,2.10
2022-12-04T22:18:34.371Z,2.10
2022-12-04T22:21:07.831Z,2.20
2022-12-04T22:23:34.964Z,2.20
2022-12-04T22:26:10.811Z,2.20
2022-12-04T22:28:38.698Z,2.20
2022-12-04T22:31:06.889Z,2.20
2022-12-04T22:33:34.032Z,2.20
2022-12-04T22:36:15.780Z,2.20
2022-12-04T22:39:05.612Z,2.20
2022-12-04T22:41:29.391Z,2.20
2022-12-04T22:43:56.199Z,2.30
2022-12-04T22:46:23.083Z,2.30
2022-12-04T22:48:49.979Z,2.30
2022-12-04T22:51:19.326Z,2.20
2022-12-04T22:53:48.867Z,2.30
2022-12-04T22:56:18.477Z,2.30
2022-12-04T22:58:45.491Z,2.30
2022-12-04T23:01:20.877Z,2.30
2022-12-04T23:03:48.454Z,2.30
2022-12-04T23:06:16.015Z,2.30
2022-12-04T23:08:43.834Z,2.30
2022-12-04T23:11:19.663Z,2.30
2022-12-04T23:13:54.924Z,2.40
2022-12-04T23:16:23.287Z,2.30
2022-12-04T23:18:50.172Z,2.30
2022-12-04T23:21:18.579Z,2.30
2022-12-04T23:23:46.935Z,2.30
2022-12-04T23:26:16.536Z,2.30
2022-12-04T23:28:43.859Z,2.30
2022-12-04T23:31:11.198Z,2.30
2022-12-04T23:33:39.392Z,2.30
2022-12-04T23:36:07.975Z,2.30
2022-12-04T23:38:36.923Z,2.30
2022-12-04T23:41:11.996Z,2.30
2022-12-04T23:43:39.775Z,2.30
2022-12-04T23:46:11.025Z,2.30
2022-12-04T23:48:39.798Z,2.30
2022-12-04T23:51:07.533Z,2.30
2022-12-04T23:53:34.669Z,2.30
2022-12-04T23:56:11.401Z,2.30
2022-12-04T23:58:38.972Z,2.30
